sensor_id;sensor_type;location;lat;lon;timestamp;temperature;humidity
9925;DHT22;5001;51.674;7.868;2022-12-16T00:02:06;-7.10;1.00
9925;DHT22;5001;51.674;7.868;2022-12-16T00:04:33;-7.20;1.00
9925;DHT22;5001;51.674;7.868;2022-12-16T00:07:00;-7.40;1.00
9925;DHT22;5001;51.674;7.868;2022-12-16T00:09:27;-7.50;1.00
9925;DHT22;5001;51.674;7.868;2022-12-16T00:11:54;-7.60;1.00
9925;DHT22;5001;51.674;7.868;2022-12-16T00:14:21;-7.60;1.00
9925;DHT22;5001;51.674;7.868;2022-12-16T00:16:48;-7.60;1.00
9925;DHT22;5001;51.674;7.868;2022-12-16T00:19:16;-7.60;1.00
9925;DHT22;5001;51.674;7.868;2022-12-16T00:21:43;-7.50;1.00
9925;DHT22;5001;51.674;7.868;2022-12-16T00:24:10;-7.50;1.00
9925;DHT22;5001;51.674;7.868;2022-12-16T00:26:37;-7.50;1.00
9925;DHT22;5001;51.674;7.868;2022-12-16T00:29:05;-7.50;1.00
9925;DHT22;5001;51.674;7.868;2022-12-16T00:31:32;-7.50;1.00
9925;DHT22;5001;51.674;7.868;2022-12-16T00:33:59;-7.40;1.00
9925;DHT22;5001;51.674;7.868;2022-12-16T00:36:25;-7.40;1.00
9925;DHT22;5001;51.674;7.868;2022-12-16T00:38:52;-7.30;1.00
9925;DHT22;5001;51.674;7.868;2022-12-16T00:41:19;-7.30;1.00
9925;DHT22;5001;51.674;7.868;2022-12-16T00:43:47;-7.30;1.00
9925;DHT22;5001;51.674;7.868;2022-12-16T00:46:14;-7.50;1.00
9925;DHT22;5001;51.674;7.868;2022-12-16T00:48:41;-7.50;1.00
9925;DHT22;5001;51.674;7.868;2022-12-16T00:51:07;-7.50;1.00
9925;DHT22;5001;51.674;7.868;2022-12-16T00:53:34;-7.50;1.00
9925;DHT22;5001;51.674;7.868;2022-12-16T00:56:07;-7.60;1.00
9925;DHT22;5001;51.674;7.868;2022-12-16T00:58:35;-7.50;1.00
9925;DHT22;5001;51.674;7.868;2022-12-16T01:01:03;-7.60;1.00
9925;DHT22;5001;51.674;7.868;2022-12-16T01:03:30;-7.50;1.00
9925;DHT22;5001;51.674;7.868;2022-12-16T01:05:57;-7.50;1.00
9925;DHT22;5001;51.674;7.868;2022-12-16T01:08:24;-7.50;1.00
9925;DHT22;5001;51.674;7.868;2022-12-16T01:10:53;-7.60;1.00
9925;DHT22;5001;51.674;7.868;2022-12-16T01:13:22;-7.60;1.00
9925;DHT22;5001;51.674;7.868;2022-12-16T01:15:50;-7.60;1.00
9925;DHT22;5001;51.674;7.868;2022-12-16T01:18:17;-7.60;1.00
9925;DHT22;5001;51.674;7.868;2022-12-16T01:20:44;-7.60;1.00
9925;DHT22;5001;51.674;7.868;2022-12-16T01:23:11;-7.50;1.00
9925;DHT22;5001;51.674;7.868;2022-12-16T01:25:38;-7.50;1.00
9925;DHT22;5001;51.674;7.868;2022-12-16T01:28:05;-7.50;1.00
9925;DHT22;5001;51.674;7.868;2022-12-16T01:30:32;-7.50;1.00
9925;DHT22;5001;51.674;7.868;2022-12-16T01:32:59;-7.50;1.00
9925;DHT22;5001;51.674;7.868;2022-12-16T01:35:26;-7.50;1.00
9925;DHT22;5001;51.674;7.868;2022-12-16T01:38:13;-7.60;1.00
9925;DHT22;5001;51.674;7.868;2022-12-16T01:40:41;-7.70;1.00
9925;DHT22;5001;51.674;7.868;2022-12-16T01:43:11;-7.70;1.00
9925;DHT22;5001;51.674;7.868;2022-12-16T01:45:38;-7.70;1.00
9925;DHT22;5001;51.674;7.868;2022-12-16T01:51:00;-7.70;1.00
9925;DHT22;5001;51.674;7.868;2022-12-16T01:53:29;-7.70;1.00
9925;DHT22;5001;51.674;7.868;2022-12-16T01:55:58;-7.70;1.00
9925;DHT22;5001;51.674;7.868;2022-12-16T01:58:30;-7.70;1.00
9925;DHT22;5001;51.674;7.868;2022-12-16T02:00:59;-7.70;1.00
9925;DHT22;5001;51.674;7.868;2022-12-16T02:03:31;-7.80;1.00
9925;DHT22;5001;51.674;7.868;2022-12-16T02:06:00;-7.90;1.00
9925;DHT22;5001;51.674;7.868;2022-12-16T02:08:28;-7.90;1.00
9925;DHT22;5001;51.674;7.868;2022-12-16T02:11:18;-7.90;1.00
9925;DHT22;5001;51.674;7.868;2022-12-16T02:28:09;-7.90;1.00
9925;DHT22;5001;51.674;7.868;2022-12-16T02:44:08;-7.90;1.00
9925;DHT22;5001;51.674;7.868;2022-12-16T02:46:41;-7.90;1.00
9925;DHT22;5001;51.674;7.868;2022-12-16T02:51:59;-7.90;1.00
9925;DHT22;5001;51.674;7.868;2022-12-16T02:54:27;-8.00;1.00
9925;DHT22;5001;51.674;7.868;2022-12-16T02:57:22;-8.00;1.00
9925;DHT22;5001;51.674;7.868;2022-12-16T03:05:33;-8.00;1.00
9925;DHT22;5001;51.674;7.868;2022-12-16T03:08:05;-8.00;1.00
9925;DHT22;5001;51.674;7.868;2022-12-16T03:10:40;-8.00;1.00
9925;DHT22;5001;51.674;7.868;2022-12-16T03:13:10;-8.00;1.00
9925;DHT22;5001;51.674;7.868;2022-12-16T03:15:38;-8.00;1.00
9925;DHT22;5001;51.674;7.868;2022-12-16T03:18:07;-8.00;1.00
9925;DHT22;5001;51.674;7.868;2022-12-16T03:20:40;-8.00;1.00
9925;DHT22;5001;51.674;7.868;2022-12-16T03:23:16;-8.00;1.00
9925;DHT22;5001;51.674;7.868;2022-12-16T03:25:47;-8.00;1.00
9925;DHT22;5001;51.674;7.868;2022-12-16T03:28:53;-8.10;1.00
9925;DHT22;5001;51.674;7.868;2022-12-16T03:36:34;-8.10;1.00
9925;DHT22;5001;51.674;7.868;2022-12-16T03:39:04;-8.20;1.00
9925;DHT22;5001;51.674;7.868;2022-12-16T03:41:32;-8.10;1.00
9925;DHT22;5001;51.674;7.868;2022-12-16T03:44:00;-8.20;1.00
9925;DHT22;5001;51.674;7.868;2022-12-16T03:46:27;-8.20;1.00
9925;DHT22;5001;51.674;7.868;2022-12-16T03:48:54;-8.20;1.00
9925;DHT22;5001;51.674;7.868;2022-12-16T03:51:21;-8.10;1.00
9925;DHT22;5001;51.674;7.868;2022-12-16T03:53:48;-8.20;1.00
9925;DHT22;5001;51.674;7.868;2022-12-16T03:56:15;-8.20;1.00
9925;DHT22;5001;51.674;7.868;2022-12-16T03:58:42;-8.20;1.00
9925;DHT22;5001;51.674;7.868;2022-12-16T04:01:09;-8.20;1.00
9925;DHT22;5001;51.674;7.868;2022-12-16T04:03:37;-8.30;1.00
9925;DHT22;5001;51.674;7.868;2022-12-16T04:06:04;-8.30;1.00
9925;DHT22;5001;51.674;7.868;2022-12-16T04:08:31;-8.30;1.00
9925;DHT22;5001;51.674;7.868;2022-12-16T04:10:58;-8.30;1.00
9925;DHT22;5001;51.674;7.868;2022-12-16T04:13:43;-8.30;1.00
9925;DHT22;5001;51.674;7.868;2022-12-16T04:16:43;-8.30;1.00
9925;DHT22;5001;51.674;7.868;2022-12-16T04:19:32;-8.30;1.00
9925;DHT22;5001;51.674;7.868;2022-12-16T04:22:26;-8.30;1.00
9925;DHT22;5001;51.674;7.868;2022-12-16T04:25:16;-8.30;1.00
9925;DHT22;5001;51.674;7.868;2022-12-16T04:27:43;-8.30;1.00
9925;DHT22;5001;51.674;7.868;2022-12-16T04:30:14;-8.30;1.00
9925;DHT22;5001;51.674;7.868;2022-12-16T04:32:54;-8.40;1.00
9925;DHT22;5001;51.674;7.868;2022-12-16T04:35:41;-8.40;1.00
9925;DHT22;5001;51.674;7.868;2022-12-16T04:38:26;-8.50;1.00
9925;DHT22;5001;51.674;7.868;2022-12-16T04:41:12;-8.50;1.00
9925;DHT22;5001;51.674;7.868;2022-12-16T04:43:58;-8.50;1.00
9925;DHT22;5001;51.674;7.868;2022-12-16T04:46:44;-8.40;1.00
9925;DHT22;5001;51.674;7.868;2022-12-16T04:49:30;-8.50;1.00
9925;DHT22;5001;51.674;7.868;2022-12-16T04:52:16;-8.50;1.00
9925;DHT22;5001;51.674;7.868;2022-12-16T04:55:02;-8.50;1.00
9925;DHT22;5001;51.674;7.868;2022-12-16T04:57:56;-8.50;1.00
9925;DHT22;5001;51.674;7.868;2022-12-16T05:00:43;-8.60;1.00
9925;DHT22;5001;51.674;7.868;2022-12-16T05:03:29;-8.60;1.00
9925;DHT22;5001;51.674;7.868;2022-12-16T05:06:15;-8.60;1.00
9925;DHT22;5001;51.674;7.868;2022-12-16T05:09:01;-8.60;1.00
9925;DHT22;5001;51.674;7.868;2022-12-16T05:11:47;-8.60;1.00
9925;DHT22;5001;51.674;7.868;2022-12-16T05:14:33;-8.60;1.00
9925;DHT22;5001;51.674;7.868;2022-12-16T05:17:19;-8.60;1.00
9925;DHT22;5001;51.674;7.868;2022-12-16T05:20:06;-8.60;1.00
9925;DHT22;5001;51.674;7.868;2022-12-16T05:22:54;-8.60;1.00
9925;DHT22;5001;51.674;7.868;2022-12-16T05:25:40;-8.60;1.00
9925;DHT22;5001;51.674;7.868;2022-12-16T05:28:26;-8.60;1.00
9925;DHT22;5001;51.674;7.868;2022-12-16T05:31:12;-8.60;1.00
9925;DHT22;5001;51.674;7.868;2022-12-16T05:33:58;-8.60;1.00
9925;DHT22;5001;51.674;7.868;2022-12-16T05:36:43;-8.60;1.00
9925;DHT22;5001;51.674;7.868;2022-12-16T05:39:28;-8.60;1.00
9925;DHT22;5001;51.674;7.868;2022-12-16T05:42:14;-8.70;1.00
9925;DHT22;5001;51.674;7.868;2022-12-16T05:44:59;-8.60;1.00
9925;DHT22;5001;51.674;7.868;2022-12-16T05:47:47;-8.70;1.00
9925;DHT22;5001;51.674;7.868;2022-12-16T05:50:33;-8.60;1.00
9925;DHT22;5001;51.674;7.868;2022-12-16T05:53:21;-8.60;1.00
9925;DHT22;5001;51.674;7.868;2022-12-16T05:56:07;-8.60;1.00
9925;DHT22;5001;51.674;7.868;2022-12-16T05:58:52;-8.70;1.00
9925;DHT22;5001;51.674;7.868;2022-12-16T06:01:38;-8.70;1.00
9925;DHT22;5001;51.674;7.868;2022-12-16T06:04:23;-8.70;1.00
9925;DHT22;5001;51.674;7.868;2022-12-16T06:07:09;-8.70;1.00
9925;DHT22;5001;51.674;7.868;2022-12-16T06:09:54;-8.70;1.00
9925;DHT22;5001;51.674;7.868;2022-12-16T06:12:40;-8.80;1.00
9925;DHT22;5001;51.674;7.868;2022-12-16T06:15:25;-8.80;1.00
9925;DHT22;5001;51.674;7.868;2022-12-16T06:18:15;-8.80;1.00
9925;DHT22;5001;51.674;7.868;2022-12-16T06:21:01;-8.80;1.00
9925;DHT22;5001;51.674;7.868;2022-12-16T06:23:46;-8.80;1.00
9925;DHT22;5001;51.674;7.868;2022-12-16T06:26:31;-8.80;1.00
9925;DHT22;5001;51.674;7.868;2022-12-16T06:29:17;-8.70;1.00
9925;DHT22;5001;51.674;7.868;2022-12-16T06:32:02;-8.70;1.00
9925;DHT22;5001;51.674;7.868;2022-12-16T06:34:47;-8.80;1.00
9925;DHT22;5001;51.674;7.868;2022-12-16T06:37:33;-8.90;1.00
9925;DHT22;5001;51.674;7.868;2022-12-16T06:40:38;-9.00;1.00
9925;DHT22;5001;51.674;7.868;2022-12-16T06:43:23;-9.00;1.00
9925;DHT22;5001;51.674;7.868;2022-12-16T06:46:09;-9.00;1.00
9925;DHT22;5001;51.674;7.868;2022-12-16T06:48:55;-9.10;1.00
9925;DHT22;5001;51.674;7.868;2022-12-16T06:51:40;-9.20;1.00
9925;DHT22;5001;51.674;7.868;2022-12-16T06:54:26;-9.20;1.00
9925;DHT22;5001;51.674;7.868;2022-12-16T06:57:11;-9.10;1.00
9925;DHT22;5001;51.674;7.868;2022-12-16T06:59:56;-9.10;1.00
9925;DHT22;5001;51.674;7.868;2022-12-16T07:02:42;-9.10;1.00
9925;DHT22;5001;51.674;7.868;2022-12-16T07:05:27;-9.10;1.00
9925;DHT22;5001;51.674;7.868;2022-12-16T07:08:13;-9.10;1.00
9925;DHT22;5001;51.674;7.868;2022-12-16T07:10:58;-9.00;1.00
9925;DHT22;5001;51.674;7.868;2022-12-16T07:13:44;-9.00;1.00
9925;DHT22;5001;51.674;7.868;2022-12-16T07:16:30;-9.00;1.00
9925;DHT22;5001;51.674;7.868;2022-12-16T07:19:15;-8.90;1.00
9925;DHT22;5001;51.674;7.868;2022-12-16T07:22:01;-8.90;1.00
9925;DHT22;5001;51.674;7.868;2022-12-16T07:24:46;-8.90;1.00
9925;DHT22;5001;51.674;7.868;2022-12-16T07:27:32;-9.00;1.00
9925;DHT22;5001;51.674;7.868;2022-12-16T07:30:17;-9.10;1.00
9925;DHT22;5001;51.674;7.868;2022-12-16T07:33:03;-9.10;1.00
9925;DHT22;5001;51.674;7.868;2022-12-16T07:35:48;-9.10;1.00
9925;DHT22;5001;51.674;7.868;2022-12-16T07:38:33;-9.10;1.00
9925;DHT22;5001;51.674;7.868;2022-12-16T07:41:19;-9.10;1.00
9925;DHT22;5001;51.674;7.868;2022-12-16T07:44:04;-8.90;1.00
9925;DHT22;5001;51.674;7.868;2022-12-16T07:46:50;-8.80;1.00
9925;DHT22;5001;51.674;7.868;2022-12-16T07:49:35;-8.90;1.00
9925;DHT22;5001;51.674;7.868;2022-12-16T07:52:22;-8.80;1.00
9925;DHT22;5001;51.674;7.868;2022-12-16T07:55:07;-8.80;1.00
9925;DHT22;5001;51.674;7.868;2022-12-16T07:57:53;-8.70;1.00
9925;DHT22;5001;51.674;7.868;2022-12-16T08:00:38;-8.60;1.00
9925;DHT22;5001;51.674;7.868;2022-12-16T08:03:24;-8.50;1.00
9925;DHT22;5001;51.674;7.868;2022-12-16T08:06:10;-8.40;1.00
9925;DHT22;5001;51.674;7.868;2022-12-16T08:08:55;-8.40;1.00
9925;DHT22;5001;51.674;7.868;2022-12-16T08:11:51;-8.20;1.00
9925;DHT22;5001;51.674;7.868;2022-12-16T08:14:37;-8.10;1.00
9925;DHT22;5001;51.674;7.868;2022-12-16T08:17:22;-8.00;1.00
9925;DHT22;5001;51.674;7.868;2022-12-16T08:20:08;-8.00;1.00
9925;DHT22;5001;51.674;7.868;2022-12-16T08:22:53;-8.00;1.00
9925;DHT22;5001;51.674;7.868;2022-12-16T08:25:39;-7.90;1.00
9925;DHT22;5001;51.674;7.868;2022-12-16T08:28:24;-7.80;1.00
9925;DHT22;5001;51.674;7.868;2022-12-16T08:31:09;-7.70;1.00
9925;DHT22;5001;51.674;7.868;2022-12-16T08:33:55;-7.60;1.00
9925;DHT22;5001;51.674;7.868;2022-12-16T08:36:41;-7.60;1.00
9925;DHT22;5001;51.674;7.868;2022-12-16T08:39:26;-7.60;1.00
9925;DHT22;5001;51.674;7.868;2022-12-16T08:42:32;-7.50;1.00
9925;DHT22;5001;51.674;7.868;2022-12-16T08:45:17;-7.30;1.00
9925;DHT22;5001;51.674;7.868;2022-12-16T08:48:03;-7.30;1.00
9925;DHT22;5001;51.674;7.868;2022-12-16T08:50:48;-7.30;1.00
9925;DHT22;5001;51.674;7.868;2022-12-16T08:53:34;-7.20;1.00
9925;DHT22;5001;51.674;7.868;2022-12-16T08:56:20;-7.10;1.00
9925;DHT22;5001;51.674;7.868;2022-12-16T08:59:05;-6.90;1.00
9925;DHT22;5001;51.674;7.868;2022-12-16T09:01:51;-6.80;1.00
9925;DHT22;5001;51.674;7.868;2022-12-16T09:04:36;-6.70;1.00
9925;DHT22;5001;51.674;7.868;2022-12-16T09:07:25;-6.50;1.00
9925;DHT22;5001;51.674;7.868;2022-12-16T09:10:11;-6.50;1.00
9925;DHT22;5001;51.674;7.868;2022-12-16T09:13:10;-6.40;1.00
9925;DHT22;5001;51.674;7.868;2022-12-16T09:15:56;-6.20;1.00
9925;DHT22;5001;51.674;7.868;2022-12-16T09:18:46;-4.50;1.00
9925;DHT22;5001;51.674;7.868;2022-12-16T09:21:31;1.20;1.00
9925;DHT22;5001;51.674;7.868;2022-12-16T09:24:17;4.90;1.00
9925;DHT22;5001;51.674;7.868;2022-12-16T09:27:03;6.80;1.00
9925;DHT22;5001;51.674;7.868;2022-12-16T09:29:48;8.00;1.00
9925;DHT22;5001;51.674;7.868;2022-12-16T09:32:34;8.90;1.00
9925;DHT22;5001;51.674;7.868;2022-12-16T09:35:20;9.20;1.00
9925;DHT22;5001;51.674;7.868;2022-12-16T09:38:05;10.40;1.00
9925;DHT22;5001;51.674;7.868;2022-12-16T09:40:51;10.30;1.00
9925;DHT22;5001;51.674;7.868;2022-12-16T09:44:05;10.60;1.00
9925;DHT22;5001;51.674;7.868;2022-12-16T09:47:14;11.10;1.00
9925;DHT22;5001;51.674;7.868;2022-12-16T09:50:23;11.10;1.00
9925;DHT22;5001;51.674;7.868;2022-12-16T09:53:14;11.30;1.00
9925;DHT22;5001;51.674;7.868;2022-12-16T09:56:03;11.70;1.00
9925;DHT22;5001;51.674;7.868;2022-12-16T09:58:59;11.80;1.00
9925;DHT22;5001;51.674;7.868;2022-12-16T10:01:45;11.90;1.00
9925;DHT22;5001;51.674;7.868;2022-12-16T10:04:31;12.20;1.00
9925;DHT22;5001;51.674;7.868;2022-12-16T10:07:21;12.50;1.00
9925;DHT22;5001;51.674;7.868;2022-12-16T10:12:58;12.50;1.00
9925;DHT22;5001;51.674;7.868;2022-12-16T10:22:24;12.60;1.00
9925;DHT22;5001;51.674;7.868;2022-12-16T10:25:21;12.00;1.00
9925;DHT22;5001;51.674;7.868;2022-12-16T10:31:13;13.30;1.00
9925;DHT22;5001;51.674;7.868;2022-12-16T10:33:59;13.00;1.00
9925;DHT22;5001;51.674;7.868;2022-12-16T10:36:49;13.00;1.00
9925;DHT22;5001;51.674;7.868;2022-12-16T10:39:49;13.10;1.00
9925;DHT22;5001;51.674;7.868;2022-12-16T10:42:42;13.20;1.00
9925;DHT22;5001;51.674;7.868;2022-12-16T10:45:41;12.90;1.00
9925;DHT22;5001;51.674;7.868;2022-12-16T10:48:30;12.70;1.00
9925;DHT22;5001;51.674;7.868;2022-12-16T10:51:26;11.60;1.00
9925;DHT22;5001;51.674;7.868;2022-12-16T10:54:32;11.70;1.00
9925;DHT22;5001;51.674;7.868;2022-12-16T10:57:26;12.00;1.00
9925;DHT22;5001;51.674;7.868;2022-12-16T11:00:19;12.70;1.00
9925;DHT22;5001;51.674;7.868;2022-12-16T11:03:23;13.80;1.00
9925;DHT22;5001;51.674;7.868;2022-12-16T11:06:14;14.50;1.00
9925;DHT22;5001;51.674;7.868;2022-12-16T11:09:24;14.90;1.00
9925;DHT22;5001;51.674;7.868;2022-12-16T11:15:18;12.90;1.00
9925;DHT22;5001;51.674;7.868;2022-12-16T11:18:16;11.90;1.00
9925;DHT22;5001;51.674;7.868;2022-12-16T11:21:15;11.20;1.00
9925;DHT22;5001;51.674;7.868;2022-12-16T11:24:13;11.90;1.00
9925;DHT22;5001;51.674;7.868;2022-12-16T11:27:20;9.20;1.00
9925;DHT22;5001;51.674;7.868;2022-12-16T11:30:19;8.30;1.00
9925;DHT22;5001;51.674;7.868;2022-12-16T11:36:10;10.80;1.00
9925;DHT22;5001;51.674;7.868;2022-12-16T11:38:58;10.70;1.00
9925;DHT22;5001;51.674;7.868;2022-12-16T11:41:46;11.00;1.00
9925;DHT22;5001;51.674;7.868;2022-12-16T11:44:38;12.50;1.00
9925;DHT22;5001;51.674;7.868;2022-12-16T11:47:50;12.20;1.00
9925;DHT22;5001;51.674;7.868;2022-12-16T11:50:41;12.60;1.00
9925;DHT22;5001;51.674;7.868;2022-12-16T11:53:43;13.00;1.00
9925;DHT22;5001;51.674;7.868;2022-12-16T11:56:37;13.10;1.00
9925;DHT22;5001;51.674;7.868;2022-12-16T12:02:35;9.60;1.00
9925;DHT22;5001;51.674;7.868;2022-12-16T12:05:29;9.80;1.00
9925;DHT22;5001;51.674;7.868;2022-12-16T12:11:28;10.70;1.00
9925;DHT22;5001;51.674;7.868;2022-12-16T12:14:33;8.00;1.00
9925;DHT22;5001;51.674;7.868;2022-12-16T12:17:50;6.50;1.00
9925;DHT22;5001;51.674;7.868;2022-12-16T12:26:31;6.40;1.00
9925;DHT22;5001;51.674;7.868;2022-12-16T12:32:49;8.00;1.00
9925;DHT22;5001;51.674;7.868;2022-12-16T12:57:19;5.40;1.00
9925;DHT22;5001;51.674;7.868;2022-12-16T13:00:16;5.30;1.00
9925;DHT22;5001;51.674;7.868;2022-12-16T13:03:23;4.80;1.00
9925;DHT22;5001;51.674;7.868;2022-12-16T13:06:14;4.20;1.00
9925;DHT22;5001;51.674;7.868;2022-12-16T13:09:00;4.20;1.00
9925;DHT22;5001;51.674;7.868;2022-12-16T13:15:17;2.80;1.00
9925;DHT22;5001;51.674;7.868;2022-12-16T13:18:17;3.10;1.00
9925;DHT22;5001;51.674;7.868;2022-12-16T13:21:35;3.00;1.00
9925;DHT22;5001;51.674;7.868;2022-12-16T13:27:14;2.20;1.00
9925;DHT22;5001;51.674;7.868;2022-12-16T13:30:21;2.00;1.00
9925;DHT22;5001;51.674;7.868;2022-12-16T13:33:28;1.80;1.00
9925;DHT22;5001;51.674;7.868;2022-12-16T13:36:17;1.80;1.00
9925;DHT22;5001;51.674;7.868;2022-12-16T13:39:20;1.50;1.00
9925;DHT22;5001;51.674;7.868;2022-12-16T13:42:29;1.00;1.00
9925;DHT22;5001;51.674;7.868;2022-12-16T13:46:11;0.90;1.00
9925;DHT22;5001;51.674;7.868;2022-12-16T13:48:48;0.70;1.00
9925;DHT22;5001;51.674;7.868;2022-12-16T13:54:40;0.50;1.00
9925;DHT22;5001;51.674;7.868;2022-12-16T13:57:29;0.50;1.00
9925;DHT22;5001;51.674;7.868;2022-12-16T14:00:20;0.50;1.00
9925;DHT22;5001;51.674;7.868;2022-12-16T14:03:23;0.40;1.00
9925;DHT22;5001;51.674;7.868;2022-12-16T14:06:18;0.30;1.00
9925;DHT22;5001;51.674;7.868;2022-12-16T14:21:44;0.10;1.00
9925;DHT22;5001;51.674;7.868;2022-12-16T14:24:32;0.00;1.00
9925;DHT22;5001;51.674;7.868;2022-12-16T14:27:20;0.00;1.00
9925;DHT22;5001;51.674;7.868;2022-12-16T14:30:32;-0.10;1.00
9925;DHT22;5001;51.674;7.868;2022-12-16T14:33:23;-0.10;1.00
9925;DHT22;5001;51.674;7.868;2022-12-16T14:36:23;-0.20;1.00
9925;DHT22;5001;51.674;7.868;2022-12-16T14:39:22;-0.20;1.00
9925;DHT22;5001;51.674;7.868;2022-12-16T14:42:28;-0.30;1.00
9925;DHT22;5001;51.674;7.868;2022-12-16T14:45:31;-0.40;1.00
9925;DHT22;5001;51.674;7.868;2022-12-16T14:57:00;-0.50;1.00
9925;DHT22;5001;51.674;7.868;2022-12-16T14:59:46;-0.60;1.00
9925;DHT22;5001;51.674;7.868;2022-12-16T15:02:36;-0.70;1.00
9925;DHT22;5001;51.674;7.868;2022-12-16T15:05:29;-0.70;1.00
9925;DHT22;5001;51.674;7.868;2022-12-16T15:08:20;-0.80;1.00
9925;DHT22;5001;51.674;7.868;2022-12-16T15:11:09;-0.90;1.00
9925;DHT22;5001;51.674;7.868;2022-12-16T15:13:59;-1.00;1.00
9925;DHT22;5001;51.674;7.868;2022-12-16T15:16:46;-1.00;1.00
9925;DHT22;5001;51.674;7.868;2022-12-16T15:19:43;-1.10;1.00
9925;DHT22;5001;51.674;7.868;2022-12-16T15:22:30;-1.20;1.00
9925;DHT22;5001;51.674;7.868;2022-12-16T15:25:25;-1.30;1.00
9925;DHT22;5001;51.674;7.868;2022-12-16T15:31:22;-1.40;1.00
9925;DHT22;5001;51.674;7.868;2022-12-16T15:34:27;-1.40;1.00
9925;DHT22;5001;51.674;7.868;2022-12-16T15:37:23;-1.50;1.00
9925;DHT22;5001;51.674;7.868;2022-12-16T15:40:26;-1.50;1.00
9925;DHT22;5001;51.674;7.868;2022-12-16T15:49:04;-2.00;1.00
9925;DHT22;5001;51.674;7.868;2022-12-16T15:51:58;-2.00;1.00
9925;DHT22;5001;51.674;7.868;2022-12-16T15:54:52;-2.20;1.00
9925;DHT22;5001;51.674;7.868;2022-12-16T15:57:38;-2.20;1.00
9925;DHT22;5001;51.674;7.868;2022-12-16T16:00:29;-2.30;1.00
9925;DHT22;5001;51.674;7.868;2022-12-16T16:03:28;-2.30;1.00
9925;DHT22;5001;51.674;7.868;2022-12-16T16:06:23;-2.30;1.00
9925;DHT22;5001;51.674;7.868;2022-12-16T16:09:22;-2.40;1.00
9925;DHT22;5001;51.674;7.868;2022-12-16T16:12:09;-2.50;1.00
9925;DHT22;5001;51.674;7.868;2022-12-16T16:14:55;-2.50;1.00
9925;DHT22;5001;51.674;7.868;2022-12-16T16:17:54;-2.50;1.00
9925;DHT22;5001;51.674;7.868;2022-12-16T16:20:41;-2.60;1.00
9925;DHT22;5001;51.674;7.868;2022-12-16T16:23:27;-2.70;1.00
9925;DHT22;5001;51.674;7.868;2022-12-16T16:26:15;-2.80;1.00
9925;DHT22;5001;51.674;7.868;2022-12-16T16:29:01;-2.80;1.00
9925;DHT22;5001;51.674;7.868;2022-12-16T16:31:46;-2.90;1.00
9925;DHT22;5001;51.674;7.868;2022-12-16T16:34:32;-2.90;1.00
9925;DHT22;5001;51.674;7.868;2022-12-16T16:37:19;-3.00;1.00
9925;DHT22;5001;51.674;7.868;2022-12-16T16:40:33;-2.80;1.00
9925;DHT22;5001;51.674;7.868;2022-12-16T16:43:20;-3.00;1.00
9925;DHT22;5001;51.674;7.868;2022-12-16T16:49:19;-3.20;1.00
9925;DHT22;5001;51.674;7.868;2022-12-16T16:52:10;-3.20;1.00
9925;DHT22;5001;51.674;7.868;2022-12-16T16:54:55;-3.30;1.00
9925;DHT22;5001;51.674;7.868;2022-12-16T16:57:42;-3.40;1.00
9925;DHT22;5001;51.674;7.868;2022-12-16T17:00:27;-3.30;1.00
9925;DHT22;5001;51.674;7.868;2022-12-16T17:03:13;-3.20;1.00
9925;DHT22;5001;51.674;7.868;2022-12-16T17:06:00;-3.40;1.00
9925;DHT22;5001;51.674;7.868;2022-12-16T17:08:45;-3.50;1.00
9925;DHT22;5001;51.674;7.868;2022-12-16T17:11:32;-3.50;1.00
9925;DHT22;5001;51.674;7.868;2022-12-16T17:14:19;-3.50;1.00
9925;DHT22;5001;51.674;7.868;2022-12-16T17:17:05;-3.60;1.00
9925;DHT22;5001;51.674;7.868;2022-12-16T17:19:51;-3.70;1.00
9925;DHT22;5001;51.674;7.868;2022-12-16T17:22:36;-3.70;1.00
9925;DHT22;5001;51.674;7.868;2022-12-16T17:25:22;-3.80;1.00
9925;DHT22;5001;51.674;7.868;2022-12-16T17:28:09;-3.80;1.00
9925;DHT22;5001;51.674;7.868;2022-12-16T17:30:55;-3.90;1.00
9925;DHT22;5001;51.674;7.868;2022-12-16T17:33:40;-3.90;1.00
9925;DHT22;5001;51.674;7.868;2022-12-16T17:36:26;-3.90;1.00
9925;DHT22;5001;51.674;7.868;2022-12-16T17:39:11;-4.00;1.00
9925;DHT22;5001;51.674;7.868;2022-12-16T17:41:57;-4.00;1.00
9925;DHT22;5001;51.674;7.868;2022-12-16T17:44:42;-3.90;1.00
9925;DHT22;5001;51.674;7.868;2022-12-16T17:47:28;-4.00;1.00
9925;DHT22;5001;51.674;7.868;2022-12-16T17:50:14;-4.10;1.00
9925;DHT22;5001;51.674;7.868;2022-12-16T17:52:59;-4.10;1.00
9925;DHT22;5001;51.674;7.868;2022-12-16T17:55:44;-4.20;1.00
9925;DHT22;5001;51.674;7.868;2022-12-16T17:58:36;-4.20;1.00
9925;DHT22;5001;51.674;7.868;2022-12-16T18:01:22;-4.20;1.00
9925;DHT22;5001;51.674;7.868;2022-12-16T18:04:08;-4.30;1.00
9925;DHT22;5001;51.674;7.868;2022-12-16T18:06:54;-4.20;1.00
9925;DHT22;5001;51.674;7.868;2022-12-16T18:09:40;-4.30;1.00
9925;DHT22;5001;51.674;7.868;2022-12-16T18:12:26;-4.40;1.00
9925;DHT22;5001;51.674;7.868;2022-12-16T18:15:11;-4.40;1.00
9925;DHT22;5001;51.674;7.868;2022-12-16T18:17:56;-4.40;1.00
9925;DHT22;5001;51.674;7.868;2022-12-16T18:20:42;-4.40;1.00
9925;DHT22;5001;51.674;7.868;2022-12-16T18:23:30;-4.50;1.00
9925;DHT22;5001;51.674;7.868;2022-12-16T18:26:16;-4.50;1.00
9925;DHT22;5001;51.674;7.868;2022-12-16T18:29:01;-4.50;1.00
9925;DHT22;5001;51.674;7.868;2022-12-16T18:31:48;-4.50;1.00
9925;DHT22;5001;51.674;7.868;2022-12-16T18:34:34;-4.60;1.00
9925;DHT22;5001;51.674;7.868;2022-12-16T18:37:19;-4.60;1.00
9925;DHT22;5001;51.674;7.868;2022-12-16T18:40:05;-4.70;1.00
9925;DHT22;5001;51.674;7.868;2022-12-16T18:42:51;-4.70;1.00
9925;DHT22;5001;51.674;7.868;2022-12-16T18:45:37;-4.70;1.00
9925;DHT22;5001;51.674;7.868;2022-12-16T18:48:22;-4.70;1.00
9925;DHT22;5001;51.674;7.868;2022-12-16T18:51:08;-4.80;1.00
9925;DHT22;5001;51.674;7.868;2022-12-16T18:53:53;-4.80;1.00
9925;DHT22;5001;51.674;7.868;2022-12-16T18:56:38;-4.80;1.00
9925;DHT22;5001;51.674;7.868;2022-12-16T18:59:24;-4.80;1.00
9925;DHT22;5001;51.674;7.868;2022-12-16T19:02:10;-4.90;1.00
9925;DHT22;5001;51.674;7.868;2022-12-16T19:04:55;-4.90;1.00
9925;DHT22;5001;51.674;7.868;2022-12-16T19:07:41;-4.90;1.00
9925;DHT22;5001;51.674;7.868;2022-12-16T19:10:26;-4.90;1.00
9925;DHT22;5001;51.674;7.868;2022-12-16T19:13:13;-5.00;1.00
9925;DHT22;5001;51.674;7.868;2022-12-16T19:16:12;-5.00;1.00
9925;DHT22;5001;51.674;7.868;2022-12-16T19:18:58;-4.90;1.00
9925;DHT22;5001;51.674;7.868;2022-12-16T19:21:46;-5.00;1.00
9925;DHT22;5001;51.674;7.868;2022-12-16T19:24:31;-5.00;1.00
9925;DHT22;5001;51.674;7.868;2022-12-16T19:27:34;-5.00;1.00
9925;DHT22;5001;51.674;7.868;2022-12-16T19:30:40;-5.10;1.00
9925;DHT22;5001;51.674;7.868;2022-12-16T19:33:25;-5.10;1.00
9925;DHT22;5001;51.674;7.868;2022-12-16T19:36:11;-5.00;1.00
9925;DHT22;5001;51.674;7.868;2022-12-16T19:38:56;-5.00;1.00
9925;DHT22;5001;51.674;7.868;2022-12-16T19:41:41;-5.10;1.00
9925;DHT22;5001;51.674;7.868;2022-12-16T19:44:27;-5.20;1.00
9925;DHT22;5001;51.674;7.868;2022-12-16T19:47:12;-5.20;1.00
9925;DHT22;5001;51.674;7.868;2022-12-16T19:49:58;-5.30;1.00
9925;DHT22;5001;51.674;7.868;2022-12-16T19:52:43;-5.40;1.00
9925;DHT22;5001;51.674;7.868;2022-12-16T19:55:28;-5.50;1.00
9925;DHT22;5001;51.674;7.868;2022-12-16T19:58:21;-5.50;1.00
9925;DHT22;5001;51.674;7.868;2022-12-16T20:01:07;-5.50;1.00
9925;DHT22;5001;51.674;7.868;2022-12-16T20:04:13;-5.60;1.00
9925;DHT22;5001;51.674;7.868;2022-12-16T20:06:58;-5.60;1.00
9925;DHT22;5001;51.674;7.868;2022-12-16T20:09:48;-5.60;1.00
9925;DHT22;5001;51.674;7.868;2022-12-16T20:12:35;-5.70;1.00
9925;DHT22;5001;51.674;7.868;2022-12-16T20:15:21;-5.60;1.00
9925;DHT22;5001;51.674;7.868;2022-12-16T20:18:07;-5.60;1.00
9925;DHT22;5001;51.674;7.868;2022-12-16T20:20:52;-5.60;1.00
9925;DHT22;5001;51.674;7.868;2022-12-16T20:23:37;-5.70;1.00
9925;DHT22;5001;51.674;7.868;2022-12-16T20:26:23;-5.80;1.00
9925;DHT22;5001;51.674;7.868;2022-12-16T20:29:09;-5.80;1.00
9925;DHT22;5001;51.674;7.868;2022-12-16T20:31:54;-5.80;1.00
9925;DHT22;5001;51.674;7.868;2022-12-16T20:34:40;-5.80;1.00
9925;DHT22;5001;51.674;7.868;2022-12-16T20:37:25;-5.80;1.00
9925;DHT22;5001;51.674;7.868;2022-12-16T20:40:11;-5.90;1.00
9925;DHT22;5001;51.674;7.868;2022-12-16T20:42:56;-5.90;1.00